createdAt,value
2022-08-31T00:04:04.841Z,0
2022-08-31T00:09:03.089Z,0
2022-08-31T00:14:04.236Z,0
2022-08-31T00:19:02.468Z,0
2022-08-31T00:24:01.790Z,0
2022-08-31T00:29:01.583Z,0
2022-08-31T00:34:00.470Z,0
2022-08-31T00:39:00.333Z,0
2022-08-31T00:43:57.518Z,0
2022-08-31T00:48:56.397Z,0
2022-08-31T00:53:56.046Z,0
2022-08-31T00:58:54.579Z,0
2022-08-31T01:00:07.625Z,0
2022-08-31T01:05:06.580Z,0
2022-08-31T01:10:06.220Z,0
2022-08-31T01:15:04.387Z,0
2022-08-31T01:20:01.920Z,0
2022-08-31T01:25:01.293Z,0
2022-08-31T01:30:00.008Z,0
2022-08-31T01:34:59.471Z,0
2022-08-31T01:39:59.185Z,0
2022-08-31T01:44:59.244Z,0
2022-08-31T01:50:01.254Z,0
2022-08-31T01:54:58.183Z,0
2022-08-31T01:58:59.328Z,0
2022-08-31T02:04:00.484Z,0
2022-08-31T02:08:56.167Z,0
2022-08-31T02:13:56.170Z,0
2022-08-31T02:18:54.671Z,0
2022-08-31T02:23:56.917Z,0
2022-08-31T02:28:54.124Z,0
2022-08-31T02:33:54.205Z,0
2022-08-31T02:38:54.869Z,0
2022-08-31T02:43:52.569Z,0
2022-08-31T02:48:51.642Z,0
2022-08-31T02:53:51.145Z,0
2022-08-31T02:58:50.032Z,0
2022-08-31T03:03:51.292Z,0
2022-08-31T03:08:49.686Z,0
2022-08-31T03:13:48.915Z,0
2022-08-31T03:18:48.137Z,0
2022-08-31T03:23:47.025Z,0
2022-08-31T03:28:45.828Z,0
2022-08-31T03:33:44.841Z,0
2022-08-31T03:38:44.227Z,0
2022-08-31T03:43:45.386Z,0
2022-08-31T03:48:42.957Z,0
2022-08-31T03:53:42.501Z,0
2022-08-31T03:58:42.470Z,0
2022-08-31T04:03:41.378Z,0
2022-08-31T04:08:40.427Z,0
2022-08-31T04:13:38.952Z,0
2022-08-31T04:18:39.035Z,0
2022-08-31T04:23:38.207Z,0
2022-08-31T04:28:37.668Z,0
2022-08-31T04:33:38.474Z,0
2022-08-31T04:38:39.005Z,0
2022-08-31T04:43:35.822Z,0
2022-08-31T04:48:34.993Z,0
2022-08-31T04:53:35.039Z,0
2022-08-31T04:58:31.998Z,0
2022-08-31T04:59:53.409Z,0
2022-08-31T05:04:53.051Z,0
2022-08-31T05:09:52.431Z,0
2022-08-31T05:14:52.247Z,0
2022-08-31T05:19:51.465Z,0
2022-08-31T05:24:50.678Z,0
2022-08-31T05:29:49.726Z,0
2022-08-31T05:34:49.667Z,0
2022-08-31T05:39:48.005Z,0
2022-08-31T05:44:45.823Z,0
2022-08-31T05:49:46.617Z,0
2022-08-31T05:54:44.809Z,0.01
2022-08-31T05:59:05.656Z,0.01
2022-08-31T06:04:05.049Z,0.01
2022-08-31T06:09:04.353Z,0.01
2022-08-31T06:14:03.569Z,0.01
2022-08-31T06:19:01.834Z,0.02
2022-08-31T06:24:00.998Z,0.01
2022-08-31T06:28:59.790Z,0.02
2022-08-31T06:33:59.209Z,0.02
2022-08-31T06:38:58.698Z,0.01
2022-08-31T06:43:59.171Z,0.01
2022-08-31T06:48:58.416Z,0.03
2022-08-31T06:54:21.698Z,0.04
2022-08-31T06:58:24.723Z,0.03
2022-08-31T07:03:23.574Z,0.04
2022-08-31T07:08:22.526Z,0.05
2022-08-31T07:13:22.696Z,0.05
2022-08-31T07:18:20.754Z,0.04
2022-08-31T07:23:21.666Z,0.05
2022-08-31T07:28:20.128Z,0.06
2022-08-31T07:33:21.217Z,0.05
2022-08-31T07:38:18.842Z,0.05
2022-08-31T07:43:20.214Z,0.06
2022-08-31T07:48:16.224Z,0.07
2022-08-31T07:53:25.134Z,0.07
2022-08-31T07:58:22.305Z,0.09
2022-08-31T07:59:44.079Z,0.09
2022-08-31T08:04:44.751Z,0.09
2022-08-31T08:09:44.622Z,0.11
2022-08-31T08:14:43.048Z,0.11
2022-08-31T08:19:42.059Z,0.11
2022-08-31T08:29:38.854Z,0.13
2022-08-31T08:34:38.296Z,0.15
2022-08-31T08:39:37.577Z,0.16
2022-08-31T08:44:36.829Z,0.17
2022-08-31T08:49:37.887Z,0.18
2022-08-31T08:54:35.798Z,0.21
2022-08-31T08:58:49.151Z,0.17
2022-08-31T09:03:48.491Z,0.12
2022-08-31T09:08:47.018Z,0.12
2022-08-31T09:13:46.083Z,0.09
2022-08-31T09:18:45.193Z,0.08
2022-08-31T09:23:44.898Z,0.05
2022-08-31T09:28:44.444Z,0.03
2022-08-31T09:33:44.191Z,0.02
2022-08-31T09:38:42.973Z,0.04
2022-08-31T09:43:45.051Z,0.04
2022-08-31T09:48:40.699Z,0.05
2022-08-31T09:53:40.368Z,0.06
2022-08-31T09:58:39.047Z,0.06
2022-08-31T10:03:38.001Z,0.07
2022-08-31T10:08:37.206Z,0.08
2022-08-31T10:13:37.315Z,0.1
2022-08-31T10:18:37.036Z,0.12
2022-08-31T10:23:36.085Z,0.14
2022-08-31T10:28:35.535Z,0.16
2022-08-31T10:33:34.580Z,0.19
2022-08-31T10:38:33.563Z,0.21
2022-08-31T10:43:34.378Z,0.23
2022-08-31T10:48:33.053Z,0.23
2022-08-31T10:53:41.610Z,0.21
2022-08-31T10:58:32.658Z,0.19
2022-08-31T10:59:58.449Z,0.18
2022-08-31T11:04:54.655Z,0.17
2022-08-31T11:09:53.516Z,0.15
2022-08-31T11:14:50.737Z,0.16
2022-08-31T11:19:49.444Z,0.16
2022-08-31T11:24:49.025Z,0.16
2022-08-31T11:29:48.374Z,0.14
2022-08-31T11:34:47.907Z,0.12
2022-08-31T11:39:47.609Z,0.12
2022-08-31T11:44:47.033Z,0.11
2022-08-31T11:49:45.857Z,0.12
2022-08-31T11:54:45.967Z,0.12
2022-08-31T11:58:54.316Z,0.13
2022-08-31T12:03:54.303Z,0.14
2022-08-31T12:08:53.225Z,0.16
2022-08-31T12:13:52.599Z,0.19
2022-08-31T12:18:51.938Z,0.18
2022-08-31T12:23:51.456Z,0.19
2022-08-31T12:28:50.017Z,0.2
2022-08-31T12:33:49.394Z,0.2
2022-08-31T12:38:46.967Z,0.21
2022-08-31T12:43:46.466Z,0.21
2022-08-31T12:48:45.704Z,0.18
2022-08-31T12:53:46.281Z,0.22
2022-08-31T12:59:06.037Z,0.23
2022-08-31T13:03:45.190Z,0.22
2022-08-31T13:08:44.701Z,0.26
2022-08-31T13:13:43.139Z,0.25
2022-08-31T13:18:42.471Z,0.25
2022-08-31T13:23:41.358Z,0.27
2022-08-31T13:28:41.206Z,0.27
2022-08-31T13:33:40.669Z,0.32
2022-08-31T13:38:40.932Z,0.31
2022-08-31T13:43:40.422Z,0.26
2022-08-31T13:48:39.850Z,0.26
2022-08-31T13:53:36.484Z,0.27
2022-08-31T13:58:35.913Z,0.26
2022-08-31T13:59:57.565Z,0.26
2022-08-31T14:04:56.731Z,0.43
2022-08-31T14:09:56.261Z,0.4
2022-08-31T14:14:55.837Z,0.24
2022-08-31T14:19:55.292Z,0.23
2022-08-31T14:24:54.585Z,0.2
2022-08-31T14:29:51.798Z,0.18
2022-08-31T14:34:52.952Z,0.17
2022-08-31T14:39:50.809Z,0.15
2022-08-31T14:44:50.693Z,0.16
2022-08-31T14:49:49.943Z,0.16
2022-08-31T14:54:49.841Z,0.16
2022-08-31T14:59:01.742Z,0.16
2022-08-31T15:03:59.017Z,0.16
2022-08-31T15:08:57.797Z,0.15
2022-08-31T15:13:56.821Z,0.15
2022-08-31T15:18:55.789Z,0.15
2022-08-31T15:23:55.222Z,0.16
2022-08-31T15:28:54.774Z,0.16
2022-08-31T15:33:54.422Z,0.19
2022-08-31T15:38:53.537Z,0.15
2022-08-31T15:43:53.186Z,0.13
2022-08-31T15:48:53.055Z,0.11
2022-08-31T15:54:24.403Z,0.1
2022-08-31T15:58:49.046Z,0.1
2022-08-31T16:03:48.334Z,0.09
2022-08-31T16:08:47.398Z,0.08
2022-08-31T16:13:47.382Z,0.08
2022-08-31T16:18:46.774Z,0.08
2022-08-31T16:23:45.979Z,0.07
2022-08-31T16:28:45.088Z,0.06
2022-08-31T16:33:45.085Z,0.06
2022-08-31T16:38:41.923Z,0.06
2022-08-31T16:43:40.913Z,0.05
2022-08-31T16:48:39.929Z,0.04
2022-08-31T16:53:39.946Z,0.04
2022-08-31T16:58:55.831Z,0.04
2022-08-31T17:03:38.757Z,0.03
2022-08-31T17:08:37.510Z,0.03
2022-08-31T17:13:37.307Z,0.02
2022-08-31T17:18:35.170Z,0.01
2022-08-31T17:23:33.744Z,0.01
2022-08-31T17:28:33.211Z,0.01
2022-08-31T17:33:32.467Z,0.01
2022-08-31T17:38:31.950Z,0
2022-08-31T17:43:31.298Z,0
2022-08-31T17:48:34.781Z,0
2022-08-31T17:53:29.798Z,0
2022-08-31T17:58:29.272Z,0
2022-08-31T17:59:51.107Z,0
2022-08-31T18:04:50.125Z,0
2022-08-31T18:09:49.136Z,0
2022-08-31T18:14:48.242Z,0
2022-08-31T18:19:47.817Z,0
2022-08-31T18:24:47.520Z,0
2022-08-31T18:29:47.149Z,0
2022-08-31T18:34:46.561Z,0
2022-08-31T18:40:01.049Z,0
2022-08-31T18:44:43.429Z,0
2022-08-31T18:49:42.400Z,0
2022-08-31T18:54:41.827Z,0
2022-08-31T18:59:02.548Z,0
2022-08-31T19:04:02.314Z,0
2022-08-31T19:09:01.677Z,0
2022-08-31T19:14:05.381Z,0
2022-08-31T19:19:00.684Z,0
2022-08-31T19:24:07.863Z,0
2022-08-31T19:28:57.142Z,0
2022-08-31T19:33:59.561Z,0
2022-08-31T19:38:56.843Z,0
2022-08-31T19:44:10.850Z,0
2022-08-31T19:48:54.189Z,0
2022-08-31T19:53:56.185Z,0
2022-08-31T19:58:18.778Z,0
2022-08-31T20:03:18.457Z,0
2022-08-31T20:08:17.669Z,0
2022-08-31T20:13:23.096Z,0
2022-08-31T20:18:21.685Z,0
2022-08-31T20:23:22.708Z,0
2022-08-31T20:28:24.462Z,0
2022-08-31T20:33:21.262Z,0
2022-08-31T20:38:19.599Z,0
2022-08-31T20:43:18.226Z,0
2022-08-31T20:48:21.060Z,0
2022-08-31T20:53:44.671Z,0
2022-08-31T20:58:16.555Z,0
2022-08-31T20:59:38.883Z,0
2022-08-31T21:04:37.873Z,0
2022-08-31T21:09:36.679Z,0
2022-08-31T21:14:36.944Z,0
2022-08-31T21:19:33.798Z,0
2022-08-31T21:24:33.075Z,0
2022-08-31T21:29:32.530Z,0
2022-08-31T21:34:32.696Z,0
2022-08-31T21:39:31.973Z,0
2022-08-31T21:44:31.582Z,0
2022-08-31T21:49:30.637Z,0
2022-08-31T21:54:30.070Z,0
2022-08-31T21:58:48.378Z,0
2022-08-31T22:00:24.657Z,0
2022-08-31T22:05:16.188Z,0
2022-08-31T22:10:08.667Z,0
2022-08-31T22:15:08.511Z,0
2022-08-31T22:20:08.376Z,0
2022-08-31T22:25:07.569Z,0
2022-08-31T22:30:15.373Z,0
2022-08-31T22:35:05.254Z,0
2022-08-31T22:40:05.211Z,0
2022-08-31T22:45:03.565Z,0
2022-08-31T22:50:03.410Z,0
2022-08-31T22:55:02.237Z,0
2022-08-31T22:59:22.858Z,0
2022-08-31T23:04:23.555Z,0
2022-08-31T23:09:22.508Z,0
2022-08-31T23:14:21.499Z,0
2022-08-31T23:19:20.279Z,0
2022-08-31T23:24:18.941Z,0
2022-08-31T23:29:17.772Z,0
2022-08-31T23:34:17.295Z,0
2022-08-31T23:39:17.032Z,0
2022-08-31T23:44:16.803Z,0
2022-08-31T23:49:16.580Z,0
2022-08-31T23:54:16.020Z,0
2022-08-31T23:59:21.207Z,0
